createdAt,value
2023-05-20T00:01:15.955Z,6.53
2023-05-20T00:05:21.062Z,5.25
2023-05-20T00:09:26.132Z,5.43
2023-05-20T00:13:31.127Z,5.55
2023-05-20T00:17:35.803Z,5.32
2023-05-20T00:21:38.911Z,5.47
2023-05-20T00:25:43.753Z,6.45
2023-05-20T00:29:47.012Z,5.90
2023-05-20T00:33:51.355Z,6.35
2023-05-20T00:37:56.953Z,6.53
2023-05-20T00:42:03.673Z,6.55
2023-05-20T00:46:07.731Z,6.15
2023-05-20T00:50:13.200Z,6.13
2023-05-20T00:54:16.996Z,6.57
2023-05-20T00:58:22.533Z,6.32
2023-05-20T01:02:26.905Z,6.80
2023-05-20T01:06:30.841Z,6.65
2023-05-20T01:10:38.734Z,6.50
2023-05-20T01:14:50.883Z,6.43
2023-05-20T01:19:00.055Z,7.72
2023-05-20T01:23:07.459Z,7.03
2023-05-20T01:27:12.217Z,6.55
2023-05-20T01:31:20.864Z,7.63
2023-05-20T01:35:24.557Z,7.05
2023-05-20T01:39:30.188Z,7.88
2023-05-20T01:43:33.821Z,6.95
2023-05-20T01:47:37.237Z,7.72
2023-05-20T01:51:41.758Z,6.70
2023-05-20T01:55:46.325Z,8.43
2023-05-20T01:59:49.814Z,8.43
2023-05-20T02:03:53.333Z,8.75
2023-05-20T02:07:56.872Z,10.48
2023-05-20T02:12:01.512Z,9.20
2023-05-20T02:16:05.400Z,10.38
2023-05-20T02:20:10.535Z,10.75
2023-05-20T02:24:13.924Z,10.30
2023-05-20T02:28:21.655Z,10.13
2023-05-20T02:32:28.413Z,11.32
2023-05-20T02:36:32.724Z,10.48
2023-05-20T02:40:36.249Z,9.95
2023-05-20T02:44:42.193Z,11.95
2023-05-20T02:48:45.591Z,11.02
2023-05-20T02:52:48.848Z,9.43
2023-05-20T02:56:52.397Z,10.32
2023-05-20T03:00:58.052Z,12.52
2023-05-20T03:05:01.295Z,11.35
2023-05-20T03:09:05.333Z,14.00
2023-05-20T03:13:11.742Z,12.65
2023-05-20T03:17:16.215Z,14.27
2023-05-20T03:21:19.544Z,10.75
2023-05-20T03:25:24.396Z,12.98
2023-05-20T03:29:27.671Z,13.63
2023-05-20T03:33:33.894Z,13.98
2023-05-20T03:37:39.034Z,12.85
2023-05-20T03:41:43.893Z,13.30
2023-05-20T03:45:47.498Z,12.27
2023-05-20T03:49:52.636Z,13.65
2023-05-20T03:53:56.433Z,12.40
2023-05-20T03:57:59.505Z,14.82
2023-05-20T04:02:02.690Z,16.30
2023-05-20T04:06:07.560Z,16.25
2023-05-20T04:10:12.500Z,15.93
2023-05-20T04:14:17.148Z,16.05
2023-05-20T04:18:20.797Z,14.90
2023-05-20T04:22:25.494Z,16.80
2023-05-20T04:26:29.114Z,15.85
2023-05-20T04:30:36.312Z,14.88
2023-05-20T04:34:41.430Z,14.75
2023-05-20T04:38:47.164Z,12.77
2023-05-20T04:42:51.491Z,13.07
2023-05-20T04:46:54.707Z,14.98
2023-05-20T04:50:58.923Z,13.85
2023-05-20T04:55:05.249Z,13.32
2023-05-20T04:59:10.340Z,13.43
2023-05-20T05:03:14.115Z,13.05
2023-05-20T05:07:17.395Z,14.95
2023-05-20T05:11:23.866Z,15.35
2023-05-20T05:15:27.518Z,14.52
2023-05-20T05:19:32.485Z,14.48
2023-05-20T05:23:36.101Z,13.23
2023-05-20T05:27:41.458Z,15.02
2023-05-20T05:31:44.603Z,13.88
2023-05-20T05:35:47.749Z,14.25
2023-05-20T05:39:51.404Z,14.68
2023-05-20T05:43:57.609Z,12.95
2023-05-20T05:48:01.241Z,12.85
2023-05-20T05:52:04.571Z,13.68
2023-05-20T05:56:08.751Z,13.38
2023-05-20T06:00:18.439Z,14.43
2023-05-20T06:04:24.694Z,13.90
2023-05-20T06:08:29.634Z,13.85
2023-05-20T06:12:32.990Z,13.38
2023-05-20T06:16:38.093Z,14.60
2023-05-20T06:20:41.989Z,14.50
2023-05-20T06:24:45.124Z,12.95
2023-05-20T06:28:48.711Z,13.38
2023-05-20T06:32:53.663Z,13.38
2023-05-20T06:36:57.174Z,13.40
2023-05-20T06:41:00.530Z,11.88
2023-05-20T06:45:04.083Z,13.18
2023-05-20T06:49:08.592Z,13.23
2023-05-20T06:53:13.191Z,13.27
2023-05-20T06:57:19.285Z,11.52
2023-05-20T07:01:23.223Z,12.27
2023-05-20T07:05:29.048Z,12.73
2023-05-20T07:09:34.384Z,11.55
2023-05-20T07:13:39.625Z,11.80
2023-05-20T07:17:42.884Z,11.50
2023-05-20T07:21:48.109Z,11.18
2023-05-20T07:25:52.163Z,11.57
2023-05-20T07:29:55.475Z,11.50
2023-05-20T07:33:59.634Z,9.63
2023-05-20T07:38:04.535Z,9.35
2023-05-20T07:42:08.366Z,9.75
2023-05-20T07:46:16.115Z,10.23
2023-05-20T07:50:20.498Z,10.00
2023-05-20T07:54:29.788Z,9.63
2023-05-20T07:58:35.751Z,8.90
2023-05-20T08:02:39.177Z,8.68
2023-05-20T08:06:45.430Z,7.50
2023-05-20T08:10:50.690Z,8.73
2023-05-20T08:14:59.700Z,8.35
2023-05-20T08:19:05.435Z,7.03
2023-05-20T08:23:08.985Z,8.00
2023-05-20T08:27:13.622Z,8.65
2023-05-20T08:31:18.568Z,7.25
2023-05-20T08:35:24.504Z,8.52
2023-05-20T08:39:28.669Z,7.15
2023-05-20T08:43:33.653Z,7.03
2023-05-20T08:47:37.539Z,6.93
2023-05-20T08:51:43.541Z,6.38
2023-05-20T08:55:50.552Z,6.35
2023-05-20T08:59:55.162Z,6.72
2023-05-20T09:03:59.440Z,5.68
2023-05-20T09:08:13.929Z,5.65
2023-05-20T09:12:17.462Z,6.00
2023-05-20T09:16:22.349Z,4.88
2023-05-20T09:20:26.839Z,5.63
2023-05-20T09:24:30.825Z,5.03
2023-05-20T09:28:36.559Z,5.53
2023-05-20T09:32:41.484Z,3.30
2023-05-20T09:36:45.901Z,3.85
2023-05-20T09:40:52.400Z,4.85
2023-05-20T09:45:00.497Z,4.22
2023-05-20T09:49:06.934Z,3.70
2023-05-20T09:53:12.635Z,4.82
2023-05-20T09:57:16.208Z,5.03
2023-05-20T10:01:19.357Z,5.00
2023-05-20T10:05:29.241Z,5.25
2023-05-20T10:09:47.664Z,5.13
2023-05-20T10:14:12.339Z,4.55
2023-05-20T10:18:28.926Z,4.60
2023-05-20T10:22:34.191Z,4.53
2023-05-20T10:26:40.175Z,4.82
2023-05-20T10:30:51.797Z,5.47
2023-05-20T10:34:59.956Z,4.50
2023-05-20T10:39:06.398Z,5.10
2023-05-20T10:43:15.082Z,5.63
2023-05-20T10:47:25.533Z,5.03
2023-05-20T10:51:32.399Z,4.68
2023-05-20T10:55:41.965Z,5.22
2023-05-20T10:59:45.817Z,5.18
2023-05-20T11:03:51.392Z,5.45
2023-05-20T11:08:04.441Z,4.55
2023-05-20T11:12:15.682Z,4.85
2023-05-20T11:16:22.799Z,4.00
2023-05-20T11:20:27.772Z,4.32
2023-05-20T11:24:31.190Z,4.40
2023-05-20T11:28:37.103Z,3.70
2023-05-20T11:32:40.412Z,3.60
2023-05-20T11:40:54.817Z,4.97
2023-05-20T11:45:01.414Z,4.25
2023-05-20T11:49:05.085Z,4.32
2023-05-20T11:53:09.525Z,4.05
2023-05-20T11:57:12.945Z,4.93
2023-05-20T12:01:22.914Z,4.28
2023-05-20T12:05:29.746Z,4.40
2023-05-20T12:09:33.581Z,5.00
2023-05-20T12:13:36.773Z,3.75
2023-05-20T12:17:49.817Z,4.75
2023-05-20T12:21:54.102Z,3.70
2023-05-20T12:25:57.458Z,3.97
2023-05-20T12:30:00.745Z,4.45
2023-05-20T12:34:05.756Z,3.97
2023-05-20T12:38:09.597Z,3.47
2023-05-20T12:42:12.820Z,4.60
2023-05-20T12:46:16.493Z,3.97
2023-05-20T12:50:21.459Z,4.22
2023-05-20T12:54:28.589Z,3.83
2023-05-20T12:58:32.173Z,3.85
2023-05-20T13:02:37.189Z,3.65
2023-05-20T13:06:44.998Z,3.83
2023-05-20T13:10:49.322Z,3.38
2023-05-20T13:14:54.604Z,3.22
2023-05-20T13:18:57.835Z,4.13
2023-05-20T13:23:02.974Z,3.67
2023-05-20T13:27:07.026Z,3.80
2023-05-20T13:31:10.456Z,3.70
2023-05-20T13:35:15.051Z,3.88
2023-05-20T13:39:19.887Z,4.70
2023-05-20T13:43:23.125Z,3.78
2023-05-20T13:47:26.419Z,3.80
2023-05-20T13:51:29.494Z,4.15
2023-05-20T13:55:34.459Z,3.58
2023-05-20T13:59:38.128Z,5.18
2023-05-20T14:03:42.963Z,4.32
2023-05-20T14:07:46.641Z,4.78
2023-05-20T14:12:00.714Z,5.65
2023-05-20T14:16:06.823Z,4.95
2023-05-20T14:20:11.337Z,5.22
2023-05-20T14:24:14.511Z,5.18
2023-05-20T14:28:19.212Z,4.55
2023-05-20T14:32:22.864Z,5.18
2023-05-20T14:36:27.935Z,4.93
2023-05-20T14:40:31.946Z,4.63
2023-05-20T14:44:39.636Z,3.70
2023-05-20T14:48:43.078Z,4.28
2023-05-20T14:52:46.955Z,4.60
2023-05-20T14:56:50.268Z,4.68
2023-05-20T15:00:56.287Z,4.18
2023-05-20T15:04:59.903Z,3.75
2023-05-20T15:09:03.916Z,3.95
2023-05-20T15:13:07.318Z,4.43
2023-05-20T15:17:14.190Z,4.50
2023-05-20T15:21:18.128Z,4.47
2023-05-20T15:25:21.714Z,4.50
2023-05-20T15:29:24.828Z,4.30
2023-05-20T15:33:30.902Z,4.88
2023-05-20T15:37:34.002Z,4.10
2023-05-20T15:41:40.415Z,4.55
2023-05-20T15:45:44.085Z,4.60
2023-05-20T15:49:49.756Z,3.70
2023-05-20T15:53:54.459Z,4.53
2023-05-20T15:57:57.472Z,4.00
2023-05-20T16:02:04.035Z,4.18
2023-05-20T16:06:11.828Z,4.18
2023-05-20T16:10:15.259Z,4.30
2023-05-20T16:14:18.265Z,3.67
2023-05-20T16:18:21.745Z,3.08
2023-05-20T16:22:27.093Z,4.00
2023-05-20T16:26:31.611Z,3.95
2023-05-20T16:30:37.493Z,3.40
2023-05-20T16:34:40.852Z,3.53
2023-05-20T16:38:45.639Z,5.20
2023-05-20T16:42:51.122Z,4.10
2023-05-20T16:46:54.593Z,3.13
2023-05-20T16:50:57.820Z,3.45
2023-05-20T16:55:04.823Z,3.50
2023-05-20T16:59:08.210Z,3.42
2023-05-20T17:03:12.183Z,4.15
2023-05-20T17:07:15.558Z,3.83
2023-05-20T17:11:23.453Z,4.68
2023-05-20T17:15:26.824Z,4.10
2023-05-20T17:19:30.550Z,3.92
2023-05-20T17:23:33.689Z,3.75
2023-05-20T17:27:40.832Z,4.05
2023-05-20T17:31:45.238Z,4.10
2023-05-20T17:35:49.433Z,4.03
2023-05-20T17:39:56.632Z,3.28
2023-05-20T17:44:02.313Z,4.10
2023-05-20T17:48:08.846Z,3.95
2023-05-20T17:52:14.923Z,4.43
2023-05-20T17:56:19.349Z,3.97
2023-05-20T18:00:24.205Z,4.57
2023-05-20T18:04:28.369Z,3.55
2023-05-20T18:08:35.181Z,3.25
2023-05-20T18:12:38.487Z,4.60
2023-05-20T18:16:42.928Z,3.58
2023-05-20T18:20:47.010Z,4.32
2023-05-20T18:24:50.344Z,4.28
2023-05-20T18:28:53.407Z,4.57
2023-05-20T18:32:59.125Z,4.75
2023-05-20T18:37:04.590Z,4.65
2023-05-20T18:41:08.049Z,3.85
2023-05-20T18:45:13.035Z,4.07
2023-05-20T18:49:20.649Z,4.00
2023-05-20T18:53:24.462Z,3.88
2023-05-20T18:57:28.624Z,3.80
2023-05-20T19:01:34.021Z,4.15
2023-05-20T19:05:39.462Z,4.43
2023-05-20T19:09:43.641Z,3.80
2023-05-20T19:13:46.958Z,4.35
2023-05-20T19:17:50.372Z,4.22
2023-05-20T19:21:56.729Z,3.95
2023-05-20T19:25:59.799Z,4.28
2023-05-20T19:30:03.775Z,3.95
2023-05-20T19:34:09.151Z,3.15
2023-05-20T19:38:14.003Z,4.95
2023-05-20T19:42:17.824Z,5.63
2023-05-20T19:46:23.531Z,4.22
2023-05-20T19:50:26.760Z,5.43
2023-05-20T19:54:31.701Z,4.82
2023-05-20T19:58:37.597Z,5.40
2023-05-20T20:02:42.144Z,4.85
2023-05-20T20:06:45.732Z,4.43
2023-05-20T20:10:51.147Z,4.53
2023-05-20T20:14:56.641Z,4.47
2023-05-20T20:19:02.393Z,5.30
2023-05-20T20:23:05.947Z,4.97
2023-05-20T20:27:10.853Z,4.75
2023-05-20T20:31:16.615Z,4.30
2023-05-20T20:35:22.767Z,4.10
2023-05-20T20:39:26.111Z,4.07
2023-05-20T20:43:37.433Z,4.85
2023-05-20T20:47:41.166Z,4.03
2023-05-20T20:51:44.392Z,3.53
2023-05-20T20:55:47.737Z,3.78
2023-05-20T20:59:58.029Z,4.63
2023-05-20T21:04:01.394Z,5.00
2023-05-20T21:08:05.377Z,4.85
2023-05-20T21:12:09.718Z,5.30
2023-05-20T21:16:15.066Z,4.78
2023-05-20T21:20:21.257Z,3.97
2023-05-20T21:24:25.075Z,3.58
2023-05-20T21:28:28.233Z,4.53
2023-05-20T21:32:34.174Z,3.70
2023-05-20T21:36:37.597Z,3.45
2023-05-20T21:40:41.333Z,3.88
2023-05-20T21:44:47.931Z,2.80
2023-05-20T21:48:52.273Z,4.32
2023-05-20T21:52:59.200Z,3.30
2023-05-20T21:57:05.289Z,3.90
2023-05-20T22:01:10.484Z,3.38
2023-05-20T22:05:15.794Z,3.55
2023-05-20T22:09:19.454Z,3.13
2023-05-20T22:13:26.653Z,3.80
2023-05-20T22:17:31.467Z,3.45
2023-05-20T22:21:46.380Z,2.83
2023-05-20T22:25:52.581Z,2.58
2023-05-20T22:29:55.968Z,3.63
2023-05-20T22:34:05.312Z,3.03
2023-05-20T22:38:10.249Z,4.47
2023-05-20T22:42:13.376Z,4.07
2023-05-20T22:46:16.737Z,4.18
2023-05-20T22:50:20.114Z,4.13
2023-05-20T22:54:25.138Z,4.78
2023-05-20T22:58:30.084Z,5.05
2023-05-20T23:02:33.222Z,5.53
2023-05-20T23:06:39.435Z,6.32
2023-05-20T23:15:05.179Z,7.60
2023-05-20T23:19:08.907Z,7.95
2023-05-20T23:23:15.170Z,8.35
2023-05-20T23:27:19.995Z,8.38
2023-05-20T23:31:24.201Z,8.18
2023-05-20T23:35:27.129Z,8.65
2023-05-20T23:39:30.582Z,10.18
2023-05-20T23:43:35.353Z,9.38
2023-05-20T23:47:39.019Z,10.07
2023-05-20T23:51:42.849Z,9.95
2023-05-20T23:55:49.849Z,8.43
2023-05-20T23:59:55.690Z,10.32
